Terminal Aerodrome Forecast
Issued by NWS Wichita, KS

Home | Current Version | Previous Version | Graphics & Text | Print | Product List | Glossary On
Versions: 1 2 3 4 5 6 7 8 9 10 11 12 13
000
FTUS43 KICT 031132
TAFICT
TAF
KICT 031132Z 0312/0412 19005KT P6SM FEW100
     FM031400 20006KT P6SM VCSH BKN100
     FM032000 20007KT P6SM SCT100
     FM040300 29006KT P6SM SCT250=

USA.gov is the U.S. government's official web portal to all federal, state and local government web resources and services.